sensor_id;sensor_type;location;lat;lon;timestamp;temperature;humidity
24686;DHT22;12804;51.176;4.452;2023-12-20T00:01:33;7.00;99.90
24686;DHT22;12804;51.176;4.452;2023-12-20T00:03:58;7.10;99.90
24686;DHT22;12804;51.176;4.452;2023-12-20T00:06:24;7.30;99.90
24686;DHT22;12804;51.176;4.452;2023-12-20T00:08:50;7.30;99.90
24686;DHT22;12804;51.176;4.452;2023-12-20T00:11:16;7.30;99.90
24686;DHT22;12804;51.176;4.452;2023-12-20T00:13:42;7.30;99.90
24686;DHT22;12804;51.176;4.452;2023-12-20T00:16:07;7.30;99.90
24686;DHT22;12804;51.176;4.452;2023-12-20T00:18:33;7.30;99.90
24686;DHT22;12804;51.176;4.452;2023-12-20T00:20:59;7.20;99.90
24686;DHT22;12804;51.176;4.452;2023-12-20T00:23:25;7.20;99.90
24686;DHT22;12804;51.176;4.452;2023-12-20T00:25:51;7.20;99.90
24686;DHT22;12804;51.176;4.452;2023-12-20T00:28:16;7.20;99.90
24686;DHT22;12804;51.176;4.452;2023-12-20T00:30:42;7.30;99.90
24686;DHT22;12804;51.176;4.452;2023-12-20T00:33:08;7.20;99.90
24686;DHT22;12804;51.176;4.452;2023-12-20T00:35:34;7.20;99.90
24686;DHT22;12804;51.176;4.452;2023-12-20T00:38:00;7.20;99.90
24686;DHT22;12804;51.176;4.452;2023-12-20T00:40:26;7.30;99.90
24686;DHT22;12804;51.176;4.452;2023-12-20T00:42:51;7.30;99.90
24686;DHT22;12804;51.176;4.452;2023-12-20T00:45:17;7.40;99.90
24686;DHT22;12804;51.176;4.452;2023-12-20T00:47:43;7.30;99.90
24686;DHT22;12804;51.176;4.452;2023-12-20T00:50:09;7.20;99.90
24686;DHT22;12804;51.176;4.452;2023-12-20T00:52:35;7.10;99.90
24686;DHT22;12804;51.176;4.452;2023-12-20T00:55:01;7.10;99.90
24686;DHT22;12804;51.176;4.452;2023-12-20T00:57:26;7.00;99.90
24686;DHT22;12804;51.176;4.452;2023-12-20T00:59:52;7.00;99.90
24686;DHT22;12804;51.176;4.452;2023-12-20T01:02:19;6.90;99.90
24686;DHT22;12804;51.176;4.452;2023-12-20T01:04:44;6.80;99.90
24686;DHT22;12804;51.176;4.452;2023-12-20T01:07:10;6.90;99.90
24686;DHT22;12804;51.176;4.452;2023-12-20T01:09:36;7.00;99.90
24686;DHT22;12804;51.176;4.452;2023-12-20T01:12:02;7.00;99.90
24686;DHT22;12804;51.176;4.452;2023-12-20T01:14:27;7.00;99.90
24686;DHT22;12804;51.176;4.452;2023-12-20T01:16:53;7.00;99.90
24686;DHT22;12804;51.176;4.452;2023-12-20T01:19:19;6.90;99.90
24686;DHT22;12804;51.176;4.452;2023-12-20T01:21:45;7.00;99.90
24686;DHT22;12804;51.176;4.452;2023-12-20T01:24:11;7.00;99.90
24686;DHT22;12804;51.176;4.452;2023-12-20T01:26:36;6.90;99.90
24686;DHT22;12804;51.176;4.452;2023-12-20T01:29:02;6.90;99.90
24686;DHT22;12804;51.176;4.452;2023-12-20T01:31:28;6.90;99.90
24686;DHT22;12804;51.176;4.452;2023-12-20T01:33:54;6.90;99.90
24686;DHT22;12804;51.176;4.452;2023-12-20T01:36:20;6.80;99.90
24686;DHT22;12804;51.176;4.452;2023-12-20T01:38:45;6.90;99.90
24686;DHT22;12804;51.176;4.452;2023-12-20T01:41:11;7.00;99.90
24686;DHT22;12804;51.176;4.452;2023-12-20T01:43:37;7.00;99.90
24686;DHT22;12804;51.176;4.452;2023-12-20T01:46:03;7.00;99.90
24686;DHT22;12804;51.176;4.452;2023-12-20T01:48:29;7.00;99.90
24686;DHT22;12804;51.176;4.452;2023-12-20T01:50:59;6.90;99.90
24686;DHT22;12804;51.176;4.452;2023-12-20T01:53:25;6.80;99.90
24686;DHT22;12804;51.176;4.452;2023-12-20T01:55:54;6.70;99.90
24686;DHT22;12804;51.176;4.452;2023-12-20T01:58:21;6.60;99.90
24686;DHT22;12804;51.176;4.452;2023-12-20T02:00:47;6.60;99.90
24686;DHT22;12804;51.176;4.452;2023-12-20T02:03:14;6.70;99.90
24686;DHT22;12804;51.176;4.452;2023-12-20T02:05:40;6.60;99.90
24686;DHT22;12804;51.176;4.452;2023-12-20T02:08:07;6.60;99.90
24686;DHT22;12804;51.176;4.452;2023-12-20T02:10:34;6.70;99.90
24686;DHT22;12804;51.176;4.452;2023-12-20T02:12:59;6.70;99.90
24686;DHT22;12804;51.176;4.452;2023-12-20T02:15:25;6.80;99.90
24686;DHT22;12804;51.176;4.452;2023-12-20T02:17:51;6.90;99.90
24686;DHT22;12804;51.176;4.452;2023-12-20T02:20:17;7.00;99.90
24686;DHT22;12804;51.176;4.452;2023-12-20T02:22:43;6.90;99.90
24686;DHT22;12804;51.176;4.452;2023-12-20T02:25:09;6.90;99.90
24686;DHT22;12804;51.176;4.452;2023-12-20T02:27:35;6.90;99.90
24686;DHT22;12804;51.176;4.452;2023-12-20T02:30:01;6.90;99.90
24686;DHT22;12804;51.176;4.452;2023-12-20T02:32:26;6.90;99.90
24686;DHT22;12804;51.176;4.452;2023-12-20T02:34:53;7.00;99.90
24686;DHT22;12804;51.176;4.452;2023-12-20T02:37:19;7.00;99.90
24686;DHT22;12804;51.176;4.452;2023-12-20T02:39:45;6.90;99.90
24686;DHT22;12804;51.176;4.452;2023-12-20T02:42:10;6.80;99.90
24686;DHT22;12804;51.176;4.452;2023-12-20T02:44:36;6.70;99.90
24686;DHT22;12804;51.176;4.452;2023-12-20T02:47:02;6.70;99.90
24686;DHT22;12804;51.176;4.452;2023-12-20T02:49:28;6.70;99.90
24686;DHT22;12804;51.176;4.452;2023-12-20T02:51:54;6.80;99.90
24686;DHT22;12804;51.176;4.452;2023-12-20T02:54:20;6.90;99.90
24686;DHT22;12804;51.176;4.452;2023-12-20T02:56:46;6.80;99.90
24686;DHT22;12804;51.176;4.452;2023-12-20T02:59:11;6.90;99.90
24686;DHT22;12804;51.176;4.452;2023-12-20T03:01:44;6.90;99.90
24686;DHT22;12804;51.176;4.452;2023-12-20T03:04:11;6.80;99.90
24686;DHT22;12804;51.176;4.452;2023-12-20T03:06:37;6.80;99.90
24686;DHT22;12804;51.176;4.452;2023-12-20T03:09:03;6.70;99.90
24686;DHT22;12804;51.176;4.452;2023-12-20T03:11:29;6.70;99.90
24686;DHT22;12804;51.176;4.452;2023-12-20T03:13:55;6.60;99.90
24686;DHT22;12804;51.176;4.452;2023-12-20T03:16:21;6.80;99.90
24686;DHT22;12804;51.176;4.452;2023-12-20T03:18:47;6.80;99.90
24686;DHT22;12804;51.176;4.452;2023-12-20T03:21:12;6.80;99.90
24686;DHT22;12804;51.176;4.452;2023-12-20T03:23:38;6.90;99.90
24686;DHT22;12804;51.176;4.452;2023-12-20T03:26:07;6.90;99.90
24686;DHT22;12804;51.176;4.452;2023-12-20T03:28:33;7.10;99.90
24686;DHT22;12804;51.176;4.452;2023-12-20T03:30:59;7.20;99.90
24686;DHT22;12804;51.176;4.452;2023-12-20T03:33:25;7.00;99.90
24686;DHT22;12804;51.176;4.452;2023-12-20T03:35:50;7.00;99.90
24686;DHT22;12804;51.176;4.452;2023-12-20T03:38:16;6.90;99.90
24686;DHT22;12804;51.176;4.452;2023-12-20T03:40:43;7.00;99.90
24686;DHT22;12804;51.176;4.452;2023-12-20T03:43:09;7.00;99.90
24686;DHT22;12804;51.176;4.452;2023-12-20T03:45:35;6.90;99.90
24686;DHT22;12804;51.176;4.452;2023-12-20T03:48:01;7.00;99.90
24686;DHT22;12804;51.176;4.452;2023-12-20T03:50:27;7.00;99.90
24686;DHT22;12804;51.176;4.452;2023-12-20T03:52:52;6.90;99.90
24686;DHT22;12804;51.176;4.452;2023-12-20T03:55:19;7.00;99.90
24686;DHT22;12804;51.176;4.452;2023-12-20T03:57:44;6.90;99.90
24686;DHT22;12804;51.176;4.452;2023-12-20T04:00:14;6.80;99.90
24686;DHT22;12804;51.176;4.452;2023-12-20T04:02:41;6.70;99.90
24686;DHT22;12804;51.176;4.452;2023-12-20T04:05:08;6.70;99.90
24686;DHT22;12804;51.176;4.452;2023-12-20T04:07:35;6.60;99.90
24686;DHT22;12804;51.176;4.452;2023-12-20T04:10:01;6.50;99.90
24686;DHT22;12804;51.176;4.452;2023-12-20T04:12:28;6.60;99.90
24686;DHT22;12804;51.176;4.452;2023-12-20T04:14:54;6.70;99.90
24686;DHT22;12804;51.176;4.452;2023-12-20T04:17:20;6.60;99.90
24686;DHT22;12804;51.176;4.452;2023-12-20T04:19:46;6.60;99.90
24686;DHT22;12804;51.176;4.452;2023-12-20T04:22:11;6.60;99.90
24686;DHT22;12804;51.176;4.452;2023-12-20T04:24:41;6.50;99.90
24686;DHT22;12804;51.176;4.452;2023-12-20T04:27:08;6.50;99.90
24686;DHT22;12804;51.176;4.452;2023-12-20T04:29:34;6.70;99.90
24686;DHT22;12804;51.176;4.452;2023-12-20T04:32:00;6.80;99.90
24686;DHT22;12804;51.176;4.452;2023-12-20T04:34:26;6.80;99.90
24686;DHT22;12804;51.176;4.452;2023-12-20T04:36:52;6.80;99.90
24686;DHT22;12804;51.176;4.452;2023-12-20T04:39:20;6.90;99.90
24686;DHT22;12804;51.176;4.452;2023-12-20T04:41:46;6.90;99.90
24686;DHT22;12804;51.176;4.452;2023-12-20T04:44:13;7.00;99.90
24686;DHT22;12804;51.176;4.452;2023-12-20T04:46:39;7.10;99.90
24686;DHT22;12804;51.176;4.452;2023-12-20T04:49:06;7.10;99.90
24686;DHT22;12804;51.176;4.452;2023-12-20T04:51:35;7.10;99.90
24686;DHT22;12804;51.176;4.452;2023-12-20T04:54:01;7.00;99.90
24686;DHT22;12804;51.176;4.452;2023-12-20T04:56:27;6.90;99.90
24686;DHT22;12804;51.176;4.452;2023-12-20T04:58:53;6.90;99.90
24686;DHT22;12804;51.176;4.452;2023-12-20T05:01:19;7.00;99.90
24686;DHT22;12804;51.176;4.452;2023-12-20T05:03:46;6.90;99.90
24686;DHT22;12804;51.176;4.452;2023-12-20T05:06:12;6.90;99.90
24686;DHT22;12804;51.176;4.452;2023-12-20T05:08:37;6.80;99.90
24686;DHT22;12804;51.176;4.452;2023-12-20T05:11:03;6.70;99.90
24686;DHT22;12804;51.176;4.452;2023-12-20T05:13:29;6.60;99.90
24686;DHT22;12804;51.176;4.452;2023-12-20T05:15:55;6.50;99.90
24686;DHT22;12804;51.176;4.452;2023-12-20T05:18:21;6.50;99.90
24686;DHT22;12804;51.176;4.452;2023-12-20T05:20:49;6.60;99.90
24686;DHT22;12804;51.176;4.452;2023-12-20T05:23:16;6.60;99.90
24686;DHT22;12804;51.176;4.452;2023-12-20T05:25:43;6.60;99.90
24686;DHT22;12804;51.176;4.452;2023-12-20T05:28:08;6.50;99.90
24686;DHT22;12804;51.176;4.452;2023-12-20T05:30:34;6.50;99.90
24686;DHT22;12804;51.176;4.452;2023-12-20T05:33:00;6.60;99.90
24686;DHT22;12804;51.176;4.452;2023-12-20T05:35:26;6.60;99.90
24686;DHT22;12804;51.176;4.452;2023-12-20T05:37:52;6.80;99.90
24686;DHT22;12804;51.176;4.452;2023-12-20T05:40:17;6.80;99.90
24686;DHT22;12804;51.176;4.452;2023-12-20T05:42:43;6.90;99.90
24686;DHT22;12804;51.176;4.452;2023-12-20T05:45:09;6.90;99.90
24686;DHT22;12804;51.176;4.452;2023-12-20T05:47:35;7.00;99.90
24686;DHT22;12804;51.176;4.452;2023-12-20T05:50:01;7.10;99.90
24686;DHT22;12804;51.176;4.452;2023-12-20T05:52:27;7.10;99.90
24686;DHT22;12804;51.176;4.452;2023-12-20T05:54:52;7.10;99.90
24686;DHT22;12804;51.176;4.452;2023-12-20T05:57:18;7.20;99.90
24686;DHT22;12804;51.176;4.452;2023-12-20T05:59:44;7.10;99.90
24686;DHT22;12804;51.176;4.452;2023-12-20T06:02:10;7.00;99.90
24686;DHT22;12804;51.176;4.452;2023-12-20T06:04:36;7.00;99.90
24686;DHT22;12804;51.176;4.452;2023-12-20T06:07:02;7.10;99.90
24686;DHT22;12804;51.176;4.452;2023-12-20T06:09:29;7.10;99.90
24686;DHT22;12804;51.176;4.452;2023-12-20T06:11:55;7.20;99.90
24686;DHT22;12804;51.176;4.452;2023-12-20T06:14:21;7.20;99.90
24686;DHT22;12804;51.176;4.452;2023-12-20T06:16:47;7.20;99.90
24686;DHT22;12804;51.176;4.452;2023-12-20T06:19:12;7.30;99.90
24686;DHT22;12804;51.176;4.452;2023-12-20T06:21:38;7.20;99.90
24686;DHT22;12804;51.176;4.452;2023-12-20T06:24:04;7.10;99.90
24686;DHT22;12804;51.176;4.452;2023-12-20T06:26:30;6.90;99.90
24686;DHT22;12804;51.176;4.452;2023-12-20T06:28:56;6.90;99.90
24686;DHT22;12804;51.176;4.452;2023-12-20T06:31:22;6.90;99.90
24686;DHT22;12804;51.176;4.452;2023-12-20T06:33:47;6.80;99.90
24686;DHT22;12804;51.176;4.452;2023-12-20T06:36:15;6.70;99.90
24686;DHT22;12804;51.176;4.452;2023-12-20T06:38:41;6.60;99.90
24686;DHT22;12804;51.176;4.452;2023-12-20T06:41:07;6.50;99.90
24686;DHT22;12804;51.176;4.452;2023-12-20T06:43:33;6.60;99.90
24686;DHT22;12804;51.176;4.452;2023-12-20T06:46:00;6.60;99.90
24686;DHT22;12804;51.176;4.452;2023-12-20T06:48:26;6.70;99.90
24686;DHT22;12804;51.176;4.452;2023-12-20T06:50:52;6.70;99.90
24686;DHT22;12804;51.176;4.452;2023-12-20T06:53:18;6.60;99.90
24686;DHT22;12804;51.176;4.452;2023-12-20T06:55:43;6.60;99.90
24686;DHT22;12804;51.176;4.452;2023-12-20T06:58:09;6.80;99.90
24686;DHT22;12804;51.176;4.452;2023-12-20T07:00:35;6.80;99.90
24686;DHT22;12804;51.176;4.452;2023-12-20T07:03:01;6.90;99.90
24686;DHT22;12804;51.176;4.452;2023-12-20T07:05:27;6.90;99.90
24686;DHT22;12804;51.176;4.452;2023-12-20T07:07:53;7.00;99.90
24686;DHT22;12804;51.176;4.452;2023-12-20T07:10:19;6.90;99.90
24686;DHT22;12804;51.176;4.452;2023-12-20T07:12:45;7.00;99.90
24686;DHT22;12804;51.176;4.452;2023-12-20T07:15:11;6.80;99.90
24686;DHT22;12804;51.176;4.452;2023-12-20T07:17:37;6.70;99.90
24686;DHT22;12804;51.176;4.452;2023-12-20T07:20:03;6.60;99.90
24686;DHT22;12804;51.176;4.452;2023-12-20T07:22:30;6.60;99.90
24686;DHT22;12804;51.176;4.452;2023-12-20T07:24:59;6.70;99.90
24686;DHT22;12804;51.176;4.452;2023-12-20T07:27:26;6.70;99.90
24686;DHT22;12804;51.176;4.452;2023-12-20T07:29:52;6.70;99.90
24686;DHT22;12804;51.176;4.452;2023-12-20T07:32:18;7.30;99.90
24686;DHT22;12804;51.176;4.452;2023-12-20T07:34:44;7.50;99.90
24686;DHT22;12804;51.176;4.452;2023-12-20T07:37:10;7.30;99.90
24686;DHT22;12804;51.176;4.452;2023-12-20T07:39:39;7.00;99.90
24686;DHT22;12804;51.176;4.452;2023-12-20T07:42:06;6.90;99.90
24686;DHT22;12804;51.176;4.452;2023-12-20T07:44:31;6.80;99.90
24686;DHT22;12804;51.176;4.452;2023-12-20T07:46:57;6.70;99.90
24686;DHT22;12804;51.176;4.452;2023-12-20T07:49:23;6.60;99.90
24686;DHT22;12804;51.176;4.452;2023-12-20T07:51:49;6.60;99.90
24686;DHT22;12804;51.176;4.452;2023-12-20T07:54:16;6.60;99.90
24686;DHT22;12804;51.176;4.452;2023-12-20T07:56:42;6.60;99.90
24686;DHT22;12804;51.176;4.452;2023-12-20T07:59:08;6.60;99.90
24686;DHT22;12804;51.176;4.452;2023-12-20T08:01:33;6.50;99.90
24686;DHT22;12804;51.176;4.452;2023-12-20T08:03:59;6.30;99.90
24686;DHT22;12804;51.176;4.452;2023-12-20T08:06:25;6.30;99.90
24686;DHT22;12804;51.176;4.452;2023-12-20T08:08:51;6.30;99.90
24686;DHT22;12804;51.176;4.452;2023-12-20T08:11:17;6.40;99.90
24686;DHT22;12804;51.176;4.452;2023-12-20T08:13:43;6.40;99.90
24686;DHT22;12804;51.176;4.452;2023-12-20T08:16:08;6.40;99.90
24686;DHT22;12804;51.176;4.452;2023-12-20T08:18:34;6.40;99.90
24686;DHT22;12804;51.176;4.452;2023-12-20T08:21:00;6.50;99.90
24686;DHT22;12804;51.176;4.452;2023-12-20T08:23:27;6.50;99.90
24686;DHT22;12804;51.176;4.452;2023-12-20T08:25:53;6.40;99.90
24686;DHT22;12804;51.176;4.452;2023-12-20T08:28:18;6.40;99.90
24686;DHT22;12804;51.176;4.452;2023-12-20T08:30:44;6.40;99.90
24686;DHT22;12804;51.176;4.452;2023-12-20T08:33:10;6.40;99.90
24686;DHT22;12804;51.176;4.452;2023-12-20T08:35:41;6.40;99.90
24686;DHT22;12804;51.176;4.452;2023-12-20T08:38:07;6.50;99.90
24686;DHT22;12804;51.176;4.452;2023-12-20T08:40:33;6.40;99.90
24686;DHT22;12804;51.176;4.452;2023-12-20T08:42:59;6.50;99.90
24686;DHT22;12804;51.176;4.452;2023-12-20T08:45:24;6.60;99.90
24686;DHT22;12804;51.176;4.452;2023-12-20T08:47:50;6.70;99.90
24686;DHT22;12804;51.176;4.452;2023-12-20T08:50:16;6.70;99.90
24686;DHT22;12804;51.176;4.452;2023-12-20T08:52:42;6.70;99.90
24686;DHT22;12804;51.176;4.452;2023-12-20T08:55:08;6.60;99.90
24686;DHT22;12804;51.176;4.452;2023-12-20T08:57:36;6.70;99.90
24686;DHT22;12804;51.176;4.452;2023-12-20T09:00:02;6.70;99.90
24686;DHT22;12804;51.176;4.452;2023-12-20T09:02:28;6.80;99.90
24686;DHT22;12804;51.176;4.452;2023-12-20T09:04:54;6.80;99.90
24686;DHT22;12804;51.176;4.452;2023-12-20T09:07:25;6.80;99.90
24686;DHT22;12804;51.176;4.452;2023-12-20T09:09:51;6.90;99.90
24686;DHT22;12804;51.176;4.452;2023-12-20T09:12:18;6.80;99.90
24686;DHT22;12804;51.176;4.452;2023-12-20T09:14:49;6.80;99.90
24686;DHT22;12804;51.176;4.452;2023-12-20T09:17:15;6.70;99.90
24686;DHT22;12804;51.176;4.452;2023-12-20T09:19:42;6.80;99.90
24686;DHT22;12804;51.176;4.452;2023-12-20T09:22:12;6.70;99.90
24686;DHT22;12804;51.176;4.452;2023-12-20T09:24:38;6.80;99.90
24686;DHT22;12804;51.176;4.452;2023-12-20T09:27:07;6.90;99.90
24686;DHT22;12804;51.176;4.452;2023-12-20T09:29:33;7.10;99.90
24686;DHT22;12804;51.176;4.452;2023-12-20T09:31:58;7.30;99.90
24686;DHT22;12804;51.176;4.452;2023-12-20T09:34:24;7.40;99.90
24686;DHT22;12804;51.176;4.452;2023-12-20T09:36:51;7.30;99.90
24686;DHT22;12804;51.176;4.452;2023-12-20T09:39:18;7.20;99.90
24686;DHT22;12804;51.176;4.452;2023-12-20T09:42:01;7.30;99.90
24686;DHT22;12804;51.176;4.452;2023-12-20T09:44:27;7.40;99.90
24686;DHT22;12804;51.176;4.452;2023-12-20T09:46:55;7.30;99.90
24686;DHT22;12804;51.176;4.452;2023-12-20T09:49:21;7.40;99.90
24686;DHT22;12804;51.176;4.452;2023-12-20T09:51:48;7.60;99.90
24686;DHT22;12804;51.176;4.452;2023-12-20T09:54:17;7.90;99.90
24686;DHT22;12804;51.176;4.452;2023-12-20T09:56:43;8.30;99.90
24686;DHT22;12804;51.176;4.452;2023-12-20T09:59:09;8.50;99.90
24686;DHT22;12804;51.176;4.452;2023-12-20T10:01:36;8.50;99.90
24686;DHT22;12804;51.176;4.452;2023-12-20T10:04:08;8.50;99.90
24686;DHT22;12804;51.176;4.452;2023-12-20T10:06:42;8.60;99.90
24686;DHT22;12804;51.176;4.452;2023-12-20T10:09:09;8.50;99.90
24686;DHT22;12804;51.176;4.452;2023-12-20T10:11:39;8.70;99.90
24686;DHT22;12804;51.176;4.452;2023-12-20T10:14:08;8.50;99.90
24686;DHT22;12804;51.176;4.452;2023-12-20T10:16:34;8.40;99.90
24686;DHT22;12804;51.176;4.452;2023-12-20T10:19:00;8.50;99.90
24686;DHT22;12804;51.176;4.452;2023-12-20T10:21:27;8.30;99.90
24686;DHT22;12804;51.176;4.452;2023-12-20T10:23:57;8.10;99.90
24686;DHT22;12804;51.176;4.452;2023-12-20T10:26:24;8.20;99.90
24686;DHT22;12804;51.176;4.452;2023-12-20T10:28:53;8.30;99.90
24686;DHT22;12804;51.176;4.452;2023-12-20T10:31:29;8.40;99.90
24686;DHT22;12804;51.176;4.452;2023-12-20T10:33:59;8.50;99.90
24686;DHT22;12804;51.176;4.452;2023-12-20T10:36:27;8.50;99.90
24686;DHT22;12804;51.176;4.452;2023-12-20T10:38:54;8.40;99.90
24686;DHT22;12804;51.176;4.452;2023-12-20T10:43:52;8.50;99.90
24686;DHT22;12804;51.176;4.452;2023-12-20T10:46:19;8.70;99.90
24686;DHT22;12804;51.176;4.452;2023-12-20T10:48:46;8.50;99.90
24686;DHT22;12804;51.176;4.452;2023-12-20T10:51:15;8.50;99.90
24686;DHT22;12804;51.176;4.452;2023-12-20T10:53:43;8.50;99.90
24686;DHT22;12804;51.176;4.452;2023-12-20T10:56:11;8.50;99.90
24686;DHT22;12804;51.176;4.452;2023-12-20T10:58:41;8.50;99.90
24686;DHT22;12804;51.176;4.452;2023-12-20T11:01:08;8.50;99.90
24686;DHT22;12804;51.176;4.452;2023-12-20T11:03:36;8.40;99.90
24686;DHT22;12804;51.176;4.452;2023-12-20T11:06:18;8.30;99.90
24686;DHT22;12804;51.176;4.452;2023-12-20T11:12:08;8.30;99.90
24686;DHT22;12804;51.176;4.452;2023-12-20T11:17:10;8.70;99.90
24686;DHT22;12804;51.176;4.452;2023-12-20T11:22:26;8.30;99.90
24686;DHT22;12804;51.176;4.452;2023-12-20T11:24:52;8.30;99.90
24686;DHT22;12804;51.176;4.452;2023-12-20T11:27:22;8.30;99.90
24686;DHT22;12804;51.176;4.452;2023-12-20T11:29:53;8.10;99.90
24686;DHT22;12804;51.176;4.452;2023-12-20T11:37:36;8.20;99.90
24686;DHT22;12804;51.176;4.452;2023-12-20T11:40:08;8.40;99.90
24686;DHT22;12804;51.176;4.452;2023-12-20T11:42:48;8.30;99.90
24686;DHT22;12804;51.176;4.452;2023-12-20T11:45:16;8.10;99.90
24686;DHT22;12804;51.176;4.452;2023-12-20T11:47:45;8.10;99.90
24686;DHT22;12804;51.176;4.452;2023-12-20T11:50:12;8.10;99.90
24686;DHT22;12804;51.176;4.452;2023-12-20T11:52:38;8.10;99.90
24686;DHT22;12804;51.176;4.452;2023-12-20T11:55:04;8.10;99.90
24686;DHT22;12804;51.176;4.452;2023-12-20T11:57:31;8.10;99.90
24686;DHT22;12804;51.176;4.452;2023-12-20T11:59:57;8.10;99.90
24686;DHT22;12804;51.176;4.452;2023-12-20T12:02:23;8.20;99.90
24686;DHT22;12804;51.176;4.452;2023-12-20T12:04:49;8.20;99.90
24686;DHT22;12804;51.176;4.452;2023-12-20T12:07:16;8.20;99.90
24686;DHT22;12804;51.176;4.452;2023-12-20T12:09:43;8.10;99.90
24686;DHT22;12804;51.176;4.452;2023-12-20T12:12:10;8.10;99.90
24686;DHT22;12804;51.176;4.452;2023-12-20T12:14:37;8.10;99.90
24686;DHT22;12804;51.176;4.452;2023-12-20T12:17:04;8.20;99.90
24686;DHT22;12804;51.176;4.452;2023-12-20T12:19:30;8.10;99.90
24686;DHT22;12804;51.176;4.452;2023-12-20T12:24:36;8.20;99.90
24686;DHT22;12804;51.176;4.452;2023-12-20T12:27:03;8.40;99.90
24686;DHT22;12804;51.176;4.452;2023-12-20T12:29:29;8.30;99.90
24686;DHT22;12804;51.176;4.452;2023-12-20T12:31:55;8.30;99.90
24686;DHT22;12804;51.176;4.452;2023-12-20T12:34:21;8.30;99.90
24686;DHT22;12804;51.176;4.452;2023-12-20T12:36:48;8.40;99.90
24686;DHT22;12804;51.176;4.452;2023-12-20T12:39:14;8.40;99.90
24686;DHT22;12804;51.176;4.452;2023-12-20T12:41:43;8.40;99.90
24686;DHT22;12804;51.176;4.452;2023-12-20T12:44:09;8.50;99.90
24686;DHT22;12804;51.176;4.452;2023-12-20T12:46:35;8.40;99.90
24686;DHT22;12804;51.176;4.452;2023-12-20T12:49:01;8.40;99.90
24686;DHT22;12804;51.176;4.452;2023-12-20T12:51:27;8.40;99.90
24686;DHT22;12804;51.176;4.452;2023-12-20T12:53:53;8.40;99.90
24686;DHT22;12804;51.176;4.452;2023-12-20T12:56:19;8.60;99.90
24686;DHT22;12804;51.176;4.452;2023-12-20T12:58:45;8.70;99.90
24686;DHT22;12804;51.176;4.452;2023-12-20T13:01:11;8.80;99.90
24686;DHT22;12804;51.176;4.452;2023-12-20T13:03:37;8.90;99.90
24686;DHT22;12804;51.176;4.452;2023-12-20T13:06:04;8.90;99.90
24686;DHT22;12804;51.176;4.452;2023-12-20T13:08:31;8.90;99.90
24686;DHT22;12804;51.176;4.452;2023-12-20T13:10:57;9.00;99.90
24686;DHT22;12804;51.176;4.452;2023-12-20T13:13:26;9.00;99.90
24686;DHT22;12804;51.176;4.452;2023-12-20T13:15:52;9.00;99.90
24686;DHT22;12804;51.176;4.452;2023-12-20T13:18:21;9.00;99.90
24686;DHT22;12804;51.176;4.452;2023-12-20T13:20:47;8.90;99.90
24686;DHT22;12804;51.176;4.452;2023-12-20T13:23:13;9.00;99.90
24686;DHT22;12804;51.176;4.452;2023-12-20T13:25:40;9.00;99.90
24686;DHT22;12804;51.176;4.452;2023-12-20T13:28:06;9.10;99.90
24686;DHT22;12804;51.176;4.452;2023-12-20T13:30:32;9.10;99.90
24686;DHT22;12804;51.176;4.452;2023-12-20T13:32:58;9.20;99.90
24686;DHT22;12804;51.176;4.452;2023-12-20T13:35:23;9.20;99.90
24686;DHT22;12804;51.176;4.452;2023-12-20T13:37:49;9.20;99.90
24686;DHT22;12804;51.176;4.452;2023-12-20T13:40:15;9.30;99.90
24686;DHT22;12804;51.176;4.452;2023-12-20T13:42:41;9.30;99.90
24686;DHT22;12804;51.176;4.452;2023-12-20T13:45:07;9.50;99.90
24686;DHT22;12804;51.176;4.452;2023-12-20T13:47:33;9.50;99.90
24686;DHT22;12804;51.176;4.452;2023-12-20T13:49:59;9.50;99.90
24686;DHT22;12804;51.176;4.452;2023-12-20T13:52:25;9.50;99.90
24686;DHT22;12804;51.176;4.452;2023-12-20T13:54:51;9.60;99.90
24686;DHT22;12804;51.176;4.452;2023-12-20T13:57:17;9.50;99.90
24686;DHT22;12804;51.176;4.452;2023-12-20T13:59:43;9.50;99.90
24686;DHT22;12804;51.176;4.452;2023-12-20T14:02:08;9.60;99.90
24686;DHT22;12804;51.176;4.452;2023-12-20T14:04:34;9.60;99.90
24686;DHT22;12804;51.176;4.452;2023-12-20T14:07:01;9.60;99.90
24686;DHT22;12804;51.176;4.452;2023-12-20T14:09:27;9.70;99.90
24686;DHT22;12804;51.176;4.452;2023-12-20T14:11:52;9.60;99.90
24686;DHT22;12804;51.176;4.452;2023-12-20T14:14:20;9.60;99.90
24686;DHT22;12804;51.176;4.452;2023-12-20T14:16:46;9.40;99.90
24686;DHT22;12804;51.176;4.452;2023-12-20T14:19:12;9.40;99.90
24686;DHT22;12804;51.176;4.452;2023-12-20T14:21:38;9.50;99.90
24686;DHT22;12804;51.176;4.452;2023-12-20T14:24:04;9.60;99.90
24686;DHT22;12804;51.176;4.452;2023-12-20T14:26:30;9.40;99.90
24686;DHT22;12804;51.176;4.452;2023-12-20T14:28:56;9.30;99.90
24686;DHT22;12804;51.176;4.452;2023-12-20T14:31:22;9.40;99.90
24686;DHT22;12804;51.176;4.452;2023-12-20T14:33:50;9.40;99.90
24686;DHT22;12804;51.176;4.452;2023-12-20T14:36:17;9.50;99.90
24686;DHT22;12804;51.176;4.452;2023-12-20T14:38:44;9.50;99.90
24686;DHT22;12804;51.176;4.452;2023-12-20T14:41:09;9.50;99.90
24686;DHT22;12804;51.176;4.452;2023-12-20T14:43:35;9.70;99.90
24686;DHT22;12804;51.176;4.452;2023-12-20T14:46:04;9.70;99.90
24686;DHT22;12804;51.176;4.452;2023-12-20T14:48:31;9.80;99.90
24686;DHT22;12804;51.176;4.452;2023-12-20T14:50:57;9.80;99.90
24686;DHT22;12804;51.176;4.452;2023-12-20T14:53:25;9.80;99.90
24686;DHT22;12804;51.176;4.452;2023-12-20T14:55:50;9.80;99.90
24686;DHT22;12804;51.176;4.452;2023-12-20T14:58:16;9.80;99.90
24686;DHT22;12804;51.176;4.452;2023-12-20T15:00:42;9.70;99.90
24686;DHT22;12804;51.176;4.452;2023-12-20T15:03:09;9.60;99.90
24686;DHT22;12804;51.176;4.452;2023-12-20T15:05:35;9.50;99.90
24686;DHT22;12804;51.176;4.452;2023-12-20T15:08:01;9.60;99.90
24686;DHT22;12804;51.176;4.452;2023-12-20T15:10:27;9.50;99.90
24686;DHT22;12804;51.176;4.452;2023-12-20T15:12:53;9.50;99.90
24686;DHT22;12804;51.176;4.452;2023-12-20T15:15:20;9.60;99.90
24686;DHT22;12804;51.176;4.452;2023-12-20T15:17:46;9.60;99.90
24686;DHT22;12804;51.176;4.452;2023-12-20T15:20:12;9.70;99.90
24686;DHT22;12804;51.176;4.452;2023-12-20T15:22:39;9.80;99.90
24686;DHT22;12804;51.176;4.452;2023-12-20T15:25:07;9.80;99.90
24686;DHT22;12804;51.176;4.452;2023-12-20T15:27:35;9.80;99.90
24686;DHT22;12804;51.176;4.452;2023-12-20T15:30:05;9.90;99.90
24686;DHT22;12804;51.176;4.452;2023-12-20T15:32:32;9.90;99.90
24686;DHT22;12804;51.176;4.452;2023-12-20T15:34:59;9.80;99.90
24686;DHT22;12804;51.176;4.452;2023-12-20T15:37:25;9.80;99.90
24686;DHT22;12804;51.176;4.452;2023-12-20T15:39:52;9.90;99.90
24686;DHT22;12804;51.176;4.452;2023-12-20T15:42:18;9.80;99.90
24686;DHT22;12804;51.176;4.452;2023-12-20T15:44:44;9.70;99.90
24686;DHT22;12804;51.176;4.452;2023-12-20T15:47:10;9.60;99.90
24686;DHT22;12804;51.176;4.452;2023-12-20T15:49:36;9.60;99.90
24686;DHT22;12804;51.176;4.452;2023-12-20T15:52:02;9.60;99.90
24686;DHT22;12804;51.176;4.452;2023-12-20T15:54:28;9.60;99.90
24686;DHT22;12804;51.176;4.452;2023-12-20T15:56:53;9.50;99.90
24686;DHT22;12804;51.176;4.452;2023-12-20T15:59:19;9.60;99.90